Terminal Aerodrome Forecast
Issued by NWS

Home | Current Version | Previous Version | Text Only | Print | Product List | Glossary On
Versions: 1 2 3 4 5 6 7 8 9 10 11 12 13 14 15 16 17 18 19 20 21
000
FTUS46 KMFR 221700 RRA
TAFRBG
TAF
KRBG 221741Z 2218/2318 17010G20KT P6SM -SHRA SCT040 OVC060
     FM230300 17004KT 6SM -RA BR BKN025 OVC040
     FM230600 VRB04KT 4SM RA BR SCT008 OVC015
     FM231500 VRB03KT P6SM -SHRA BKN020 OVC030=

USA.gov is the U.S. government's official web portal to all federal, state and local government web resources and services.